sensor_id;sensor_type;location;lat;lon;timestamp;pressure;altitude;pressure_sealevel;temperature;humidity
65329;BME280;51941;52.210;5.158;2024-01-06T00:02:00;100413.63;;;4.13;81.26
65329;BME280;51941;52.210;5.158;2024-01-06T00:04:28;100406.53;;;4.05;81.82
65329;BME280;51941;52.210;5.158;2024-01-06T00:06:55;100414.63;;;4.09;81.73
65329;BME280;51941;52.210;5.158;2024-01-06T00:09:21;100411.53;;;3.94;81.87
65329;BME280;51941;52.210;5.158;2024-01-06T00:11:48;100411.19;;;4.08;81.29
65329;BME280;51941;52.210;5.158;2024-01-06T00:14:15;100419.41;;;4.03;81.13
65329;BME280;51941;52.210;5.158;2024-01-06T00:16:42;100423.75;;;4.08;81.20
65329;BME280;51941;52.210;5.158;2024-01-06T00:19:08;100425.72;;;4.11;80.95
65329;BME280;51941;52.210;5.158;2024-01-06T00:21:36;100426.28;;;4.16;80.51
65329;BME280;51941;52.210;5.158;2024-01-06T00:24:04;100427.63;;;4.10;80.57
65329;BME280;51941;52.210;5.158;2024-01-06T00:26:31;100429.09;;;4.08;80.51
65329;BME280;51941;52.210;5.158;2024-01-06T00:28:57;100432.97;;;3.98;80.63
65329;BME280;51941;52.210;5.158;2024-01-06T00:31:24;100435.59;;;4.23;79.75
65329;BME280;51941;52.210;5.158;2024-01-06T00:33:51;100428.94;;;4.16;80.42
65329;BME280;51941;52.210;5.158;2024-01-06T00:36:17;100430.50;;;4.18;80.32
65329;BME280;51941;52.210;5.158;2024-01-06T00:38:46;100440.94;;;4.10;80.25
65329;BME280;51941;52.210;5.158;2024-01-06T00:41:13;100435.28;;;4.00;80.21
65329;BME280;51941;52.210;5.158;2024-01-06T00:43:40;100440.28;;;4.13;80.16
65329;BME280;51941;52.210;5.158;2024-01-06T00:46:07;100445.16;;;4.11;79.68
65329;BME280;51941;52.210;5.158;2024-01-06T00:48:33;100445.50;;;4.10;79.82
65329;BME280;51941;52.210;5.158;2024-01-06T00:51:00;100445.94;;;4.00;79.79
65329;BME280;51941;52.210;5.158;2024-01-06T00:53:27;100457.16;;;4.05;79.99
65329;BME280;51941;52.210;5.158;2024-01-06T00:55:55;100448.94;;;4.10;79.79
65329;BME280;51941;52.210;5.158;2024-01-06T00:58:22;100453.06;;;4.08;79.29
65329;BME280;51941;52.210;5.158;2024-01-06T01:00:48;100462.81;;;3.91;80.43
65329;BME280;51941;52.210;5.158;2024-01-06T01:03:15;100463.19;;;3.90;80.35
65329;BME280;51941;52.210;5.158;2024-01-06T01:05:42;100461.06;;;4.08;79.71
65329;BME280;51941;52.210;5.158;2024-01-06T01:08:09;100464.94;;;3.98;79.70
65329;BME280;51941;52.210;5.158;2024-01-06T01:10:36;100477.47;;;3.97;80.04
65329;BME280;51941;52.210;5.158;2024-01-06T01:13:05;100471.72;;;4.08;79.59
65329;BME280;51941;52.210;5.158;2024-01-06T01:15:31;100472.94;;;3.98;79.66
65329;BME280;51941;52.210;5.158;2024-01-06T01:17:58;100484.03;;;4.00;79.74
65329;BME280;51941;52.210;5.158;2024-01-06T01:20:25;100493.81;;;4.08;79.21
65329;BME280;51941;52.210;5.158;2024-01-06T01:22:51;100508.13;;;3.91;79.86
65329;BME280;51941;52.210;5.158;2024-01-06T01:25:18;100510.91;;;3.83;80.24
65329;BME280;51941;52.210;5.158;2024-01-06T01:27:45;100508.75;;;3.76;80.36
65329;BME280;51941;52.210;5.158;2024-01-06T01:30:13;100506.25;;;3.92;79.52
65329;BME280;51941;52.210;5.158;2024-01-06T01:32:40;100504.88;;;3.86;79.73
65329;BME280;51941;52.210;5.158;2024-01-06T01:35:07;100509.78;;;3.84;80.11
65329;BME280;51941;52.210;5.158;2024-01-06T01:37:34;100518.13;;;3.82;79.92
65329;BME280;51941;52.210;5.158;2024-01-06T01:40:03;100519.00;;;3.86;79.72
65329;BME280;51941;52.210;5.158;2024-01-06T01:42:31;100527.31;;;3.85;79.50
65329;BME280;51941;52.210;5.158;2024-01-06T01:44:57;100526.44;;;3.81;79.82
65329;BME280;51941;52.210;5.158;2024-01-06T01:47:26;100535.94;;;3.69;80.07
65329;BME280;51941;52.210;5.158;2024-01-06T01:49:53;100533.97;;;3.79;79.81
65329;BME280;51941;52.210;5.158;2024-01-06T01:52:21;100534.84;;;3.70;79.29
65329;BME280;51941;52.210;5.158;2024-01-06T01:54:48;100546.16;;;3.67;79.53
65329;BME280;51941;52.210;5.158;2024-01-06T01:57:15;100548.97;;;3.83;79.18
65329;BME280;51941;52.210;5.158;2024-01-06T01:59:42;100561.50;;;3.70;79.70
65329;BME280;51941;52.210;5.158;2024-01-06T02:02:09;100558.16;;;3.73;79.25
65329;BME280;51941;52.210;5.158;2024-01-06T02:04:38;100560.53;;;3.54;79.93
65329;BME280;51941;52.210;5.158;2024-01-06T02:07:04;100566.91;;;3.74;78.77
65329;BME280;51941;52.210;5.158;2024-01-06T02:09:31;100573.16;;;3.78;79.25
65329;BME280;51941;52.210;5.158;2024-01-06T02:11:58;100562.97;;;3.80;79.00
65329;BME280;51941;52.210;5.158;2024-01-06T02:14:25;100559.94;;;3.69;79.41
65329;BME280;51941;52.210;5.158;2024-01-06T02:16:52;100569.53;;;3.49;80.27
65329;BME280;51941;52.210;5.158;2024-01-06T02:19:18;100572.53;;;3.60;80.24
65329;BME280;51941;52.210;5.158;2024-01-06T02:21:49;100578.53;;;3.57;80.33
65329;BME280;51941;52.210;5.158;2024-01-06T02:24:15;100580.88;;;3.59;80.55
65329;BME280;51941;52.210;5.158;2024-01-06T02:26:42;100580.91;;;3.71;80.01
65329;BME280;51941;52.210;5.158;2024-01-06T02:29:09;100578.66;;;3.61;80.02
65329;BME280;51941;52.210;5.158;2024-01-06T02:31:35;100586.97;;;3.59;80.29
65329;BME280;51941;52.210;5.158;2024-01-06T02:34:02;100588.44;;;3.69;79.87
65329;BME280;51941;52.210;5.158;2024-01-06T02:36:29;100594.41;;;3.66;79.62
65329;BME280;51941;52.210;5.158;2024-01-06T02:38:57;100599.53;;;3.59;79.96
65329;BME280;51941;52.210;5.158;2024-01-06T02:41:23;100603.66;;;3.68;79.33
65329;BME280;51941;52.210;5.158;2024-01-06T02:43:50;100602.72;;;3.64;79.76
65329;BME280;51941;52.210;5.158;2024-01-06T02:46:17;100606.72;;;3.58;79.78
65329;BME280;51941;52.210;5.158;2024-01-06T02:48:43;100612.72;;;3.55;80.34
65329;BME280;51941;52.210;5.158;2024-01-06T02:51:11;100613.06;;;3.66;79.39
65329;BME280;51941;52.210;5.158;2024-01-06T02:53:38;100608.28;;;3.59;79.71
65329;BME280;51941;52.210;5.158;2024-01-06T02:56:09;100621.16;;;3.57;79.43
65329;BME280;51941;52.210;5.158;2024-01-06T02:58:36;100626.88;;;3.47;80.09
65329;BME280;51941;52.210;5.158;2024-01-06T03:01:03;100633.03;;;3.39;80.43
65329;BME280;51941;52.210;5.158;2024-01-06T03:03:30;100631.31;;;3.43;79.93
65329;BME280;51941;52.210;5.158;2024-01-06T03:05:57;100618.63;;;3.40;80.42
65329;BME280;51941;52.210;5.158;2024-01-06T03:08:23;100627.34;;;3.49;79.72
65329;BME280;51941;52.210;5.158;2024-01-06T03:10:50;100637.63;;;3.50;79.51
65329;BME280;51941;52.210;5.158;2024-01-06T03:13:18;100635.81;;;3.42;80.51
65329;BME280;51941;52.210;5.158;2024-01-06T03:15:45;100641.47;;;3.41;80.38
65329;BME280;51941;52.210;5.158;2024-01-06T03:18:12;100644.41;;;3.48;79.86
65329;BME280;51941;52.210;5.158;2024-01-06T03:20:38;100646.47;;;3.42;80.38
65329;BME280;51941;52.210;5.158;2024-01-06T03:23:05;100643.13;;;3.33;80.37
65329;BME280;51941;52.210;5.158;2024-01-06T03:25:32;100653.41;;;3.55;79.69
65329;BME280;51941;52.210;5.158;2024-01-06T03:27:58;100656.09;;;3.55;79.78
65329;BME280;51941;52.210;5.158;2024-01-06T03:30:26;100648.28;;;3.50;80.25
65329;BME280;51941;52.210;5.158;2024-01-06T03:32:53;100657.66;;;3.56;79.70
65329;BME280;51941;52.210;5.158;2024-01-06T03:35:20;100664.16;;;3.47;79.69
65329;BME280;51941;52.210;5.158;2024-01-06T03:37:47;100664.47;;;3.45;79.78
65329;BME280;51941;52.210;5.158;2024-01-06T03:40:13;100680.88;;;3.26;80.61
65329;BME280;51941;52.210;5.158;2024-01-06T03:42:40;100683.22;;;3.28;80.74
65329;BME280;51941;52.210;5.158;2024-01-06T03:45:07;100671.88;;;3.40;80.40
65329;BME280;51941;52.210;5.158;2024-01-06T03:47:36;100678.81;;;3.32;80.55
65329;BME280;51941;52.210;5.158;2024-01-06T03:50:03;100686.88;;;3.23;81.18
65329;BME280;51941;52.210;5.158;2024-01-06T03:52:29;100683.69;;;3.51;79.87
65329;BME280;51941;52.210;5.158;2024-01-06T03:54:56;100687.38;;;3.38;80.89
65329;BME280;51941;52.210;5.158;2024-01-06T03:57:23;100688.63;;;3.40;80.37
65329;BME280;51941;52.210;5.158;2024-01-06T03:59:49;100694.84;;;3.44;79.72
65329;BME280;51941;52.210;5.158;2024-01-06T04:02:16;100692.13;;;3.53;79.76
65329;BME280;51941;52.210;5.158;2024-01-06T04:04:44;100699.66;;;3.51;79.90
65329;BME280;51941;52.210;5.158;2024-01-06T04:07:11;100698.75;;;3.47;80.02
65329;BME280;51941;52.210;5.158;2024-01-06T04:09:37;100707.84;;;3.46;80.12
65329;BME280;51941;52.210;5.158;2024-01-06T04:12:05;100725.19;;;3.52;80.34
65329;BME280;51941;52.210;5.158;2024-01-06T04:14:32;100709.97;;;3.52;80.05
65329;BME280;51941;52.210;5.158;2024-01-06T04:16:59;100712.84;;;3.47;79.95
65329;BME280;51941;52.210;5.158;2024-01-06T04:19:25;100723.81;;;3.46;80.45
65329;BME280;51941;52.210;5.158;2024-01-06T04:21:53;100719.25;;;3.46;80.26
65329;BME280;51941;52.210;5.158;2024-01-06T04:24:20;100717.41;;;3.47;80.00
65329;BME280;51941;52.210;5.158;2024-01-06T04:26:47;100715.50;;;3.47;80.06
65329;BME280;51941;52.210;5.158;2024-01-06T04:29:14;100728.53;;;3.40;80.41
65329;BME280;51941;52.210;5.158;2024-01-06T04:31:41;100734.84;;;3.35;80.62
65329;BME280;51941;52.210;5.158;2024-01-06T04:34:08;100739.75;;;3.25;80.95
65329;BME280;51941;52.210;5.158;2024-01-06T04:36:34;100733.47;;;3.29;80.68
65329;BME280;51941;52.210;5.158;2024-01-06T04:39:02;100729.00;;;3.21;81.64
65329;BME280;51941;52.210;5.158;2024-01-06T04:41:28;100747.28;;;3.23;80.80
65329;BME280;51941;52.210;5.158;2024-01-06T04:43:55;100739.81;;;3.16;80.54
65329;BME280;51941;52.210;5.158;2024-01-06T04:46:22;100740.09;;;3.23;80.75
65329;BME280;51941;52.210;5.158;2024-01-06T04:48:49;100735.50;;;3.03;81.51
65329;BME280;51941;52.210;5.158;2024-01-06T04:51:15;100734.03;;;3.14;80.99
65329;BME280;51941;52.210;5.158;2024-01-06T04:53:42;100737.66;;;3.09;81.75
65329;BME280;51941;52.210;5.158;2024-01-06T04:56:10;100740.41;;;3.22;81.22
65329;BME280;51941;52.210;5.158;2024-01-06T04:58:37;100740.56;;;3.25;81.07
65329;BME280;51941;52.210;5.158;2024-01-06T05:01:04;100745.41;;;3.23;81.13
65329;BME280;51941;52.210;5.158;2024-01-06T05:03:31;100747.28;;;3.23;81.12
65329;BME280;51941;52.210;5.158;2024-01-06T05:05:57;100745.31;;;3.11;81.75
65329;BME280;51941;52.210;5.158;2024-01-06T05:08:24;100758.63;;;3.11;81.18
65329;BME280;51941;52.210;5.158;2024-01-06T05:10:52;100751.31;;;2.99;81.27
65329;BME280;51941;52.210;5.158;2024-01-06T05:13:20;100751.50;;;2.94;81.47
65329;BME280;51941;52.210;5.158;2024-01-06T05:15:47;100763.84;;;2.99;81.16
65329;BME280;51941;52.210;5.158;2024-01-06T05:18:13;100757.13;;;2.92;81.37
65329;BME280;51941;52.210;5.158;2024-01-06T05:20:40;100765.28;;;2.87;81.30
65329;BME280;51941;52.210;5.158;2024-01-06T05:23:07;100771.53;;;2.91;81.30
65329;BME280;51941;52.210;5.158;2024-01-06T05:25:33;100762.31;;;2.89;81.26
65329;BME280;51941;52.210;5.158;2024-01-06T05:28:00;100766.34;;;2.95;81.18
65329;BME280;51941;52.210;5.158;2024-01-06T05:30:28;100777.19;;;2.81;81.72
65329;BME280;51941;52.210;5.158;2024-01-06T05:32:55;100785.91;;;2.99;81.26
65329;BME280;51941;52.210;5.158;2024-01-06T05:35:22;100799.03;;;3.04;80.79
65329;BME280;51941;52.210;5.158;2024-01-06T05:37:49;100776.53;;;2.93;81.67
65329;BME280;51941;52.210;5.158;2024-01-06T05:40:16;100782.47;;;2.99;81.93
65329;BME280;51941;52.210;5.158;2024-01-06T05:42:43;100786.66;;;3.08;81.10
65329;BME280;51941;52.210;5.158;2024-01-06T05:45:10;100792.75;;;3.09;80.90
65329;BME280;51941;52.210;5.158;2024-01-06T05:47:39;100798.53;;;3.11;80.87
65329;BME280;51941;52.210;5.158;2024-01-06T05:50:07;100804.00;;;3.14;80.77
65329;BME280;51941;52.210;5.158;2024-01-06T05:52:34;100804.03;;;3.06;81.45
65329;BME280;51941;52.210;5.158;2024-01-06T05:55:01;100811.72;;;3.07;81.52
65329;BME280;51941;52.210;5.158;2024-01-06T05:57:28;100810.28;;;3.10;81.19
65329;BME280;51941;52.210;5.158;2024-01-06T05:59:54;100820.28;;;3.13;81.05
65329;BME280;51941;52.210;5.158;2024-01-06T06:02:21;100820.16;;;3.01;81.80
65329;BME280;51941;52.210;5.158;2024-01-06T06:04:49;100825.03;;;2.99;81.99
65329;BME280;51941;52.210;5.158;2024-01-06T06:07:16;100826.25;;;3.01;81.33
65329;BME280;51941;52.210;5.158;2024-01-06T06:09:43;100836.59;;;3.03;81.39
65329;BME280;51941;52.210;5.158;2024-01-06T06:12:12;100832.91;;;2.86;81.34
65329;BME280;51941;52.210;5.158;2024-01-06T06:14:39;100835.97;;;2.97;81.50
65329;BME280;51941;52.210;5.158;2024-01-06T06:17:06;100836.44;;;2.99;81.03
65329;BME280;51941;52.210;5.158;2024-01-06T06:19:32;100837.88;;;2.96;80.83
65329;BME280;51941;52.210;5.158;2024-01-06T06:22:00;100838.63;;;3.06;80.62
65329;BME280;51941;52.210;5.158;2024-01-06T06:24:27;100847.56;;;3.01;80.75
65329;BME280;51941;52.210;5.158;2024-01-06T06:26:54;100854.00;;;3.00;80.41
65329;BME280;51941;52.210;5.158;2024-01-06T06:29:20;100859.91;;;3.06;80.58
65329;BME280;51941;52.210;5.158;2024-01-06T06:31:47;100879.34;;;2.97;80.90
65329;BME280;51941;52.210;5.158;2024-01-06T06:34:14;100868.09;;;2.83;81.40
65329;BME280;51941;52.210;5.158;2024-01-06T06:36:40;100876.06;;;2.83;81.32
65329;BME280;51941;52.210;5.158;2024-01-06T06:39:08;100875.16;;;2.88;81.08
65329;BME280;51941;52.210;5.158;2024-01-06T06:41:35;100886.28;;;2.72;81.84
65329;BME280;51941;52.210;5.158;2024-01-06T06:44:02;100897.06;;;2.67;82.20
65329;BME280;51941;52.210;5.158;2024-01-06T06:46:29;100892.38;;;2.73;82.20
65329;BME280;51941;52.210;5.158;2024-01-06T06:48:57;100894.88;;;2.69;82.69
65329;BME280;51941;52.210;5.158;2024-01-06T06:51:23;100904.72;;;2.77;82.30
65329;BME280;51941;52.210;5.158;2024-01-06T06:53:52;100905.50;;;2.69;82.94
65329;BME280;51941;52.210;5.158;2024-01-06T06:56:20;100906.91;;;2.75;82.55
65329;BME280;51941;52.210;5.158;2024-01-06T06:58:47;100906.63;;;2.68;83.11
65329;BME280;51941;52.210;5.158;2024-01-06T07:01:14;100910.84;;;2.61;83.95
65329;BME280;51941;52.210;5.158;2024-01-06T07:03:41;100917.56;;;2.67;83.47
65329;BME280;51941;52.210;5.158;2024-01-06T07:06:08;100915.84;;;2.62;83.76
65329;BME280;51941;52.210;5.158;2024-01-06T07:08:34;100922.25;;;2.61;84.09
65329;BME280;51941;52.210;5.158;2024-01-06T07:11:03;100938.69;;;2.63;83.91
65329;BME280;51941;52.210;5.158;2024-01-06T07:13:31;100942.75;;;2.61;84.30
65329;BME280;51941;52.210;5.158;2024-01-06T07:15:58;100944.63;;;2.69;83.72
65329;BME280;51941;52.210;5.158;2024-01-06T07:18:25;100938.38;;;2.65;84.15
65329;BME280;51941;52.210;5.158;2024-01-06T07:20:52;100943.84;;;2.68;83.91
65329;BME280;51941;52.210;5.158;2024-01-06T07:23:18;100940.84;;;2.70;83.98
65329;BME280;51941;52.210;5.158;2024-01-06T07:25:45;100958.06;;;2.64;84.11
65329;BME280;51941;52.210;5.158;2024-01-06T07:28:12;100952.13;;;2.75;83.71
65329;BME280;51941;52.210;5.158;2024-01-06T07:30:40;100956.81;;;2.70;83.85
65329;BME280;51941;52.210;5.158;2024-01-06T07:33:06;100960.28;;;2.70;83.77
65329;BME280;51941;52.210;5.158;2024-01-06T07:35:33;100972.28;;;2.68;83.66
65329;BME280;51941;52.210;5.158;2024-01-06T07:38:00;100970.59;;;2.72;83.62
65329;BME280;51941;52.210;5.158;2024-01-06T07:40:27;100990.31;;;2.62;84.45
65329;BME280;51941;52.210;5.158;2024-01-06T07:42:53;100987.47;;;2.67;84.16
65329;BME280;51941;52.210;5.158;2024-01-06T07:45:20;100986.53;;;2.63;84.08
65329;BME280;51941;52.210;5.158;2024-01-06T07:47:48;100992.97;;;2.62;84.71
65329;BME280;51941;52.210;5.158;2024-01-06T07:50:15;100995.44;;;2.67;84.04
65329;BME280;51941;52.210;5.158;2024-01-06T07:52:42;101002.81;;;2.70;83.85
65329;BME280;51941;52.210;5.158;2024-01-06T07:55:08;100991.56;;;2.65;84.16
65329;BME280;51941;52.210;5.158;2024-01-06T07:57:35;101000.31;;;2.65;83.87
65329;BME280;51941;52.210;5.158;2024-01-06T08:00:02;101000.47;;;2.60;83.69
65329;BME280;51941;52.210;5.158;2024-01-06T08:02:37;101006.09;;;2.67;83.82
65329;BME280;51941;52.210;5.158;2024-01-06T08:05:06;101012.03;;;2.64;83.87
65329;BME280;51941;52.210;5.158;2024-01-06T08:07:33;101013.94;;;2.72;83.69
65329;BME280;51941;52.210;5.158;2024-01-06T08:09:59;101026.13;;;2.73;83.33
65329;BME280;51941;52.210;5.158;2024-01-06T08:12:30;101023.94;;;2.75;83.33
65329;BME280;51941;52.210;5.158;2024-01-06T08:14:56;101028.94;;;2.77;83.21
65329;BME280;51941;52.210;5.158;2024-01-06T08:17:23;101033.00;;;2.83;82.58
65329;BME280;51941;52.210;5.158;2024-01-06T08:19:50;101028.31;;;2.89;82.56
65329;BME280;51941;52.210;5.158;2024-01-06T08:22:18;101039.44;;;2.91;82.44
65329;BME280;51941;52.210;5.158;2024-01-06T08:24:45;101041.78;;;2.92;82.31
65329;BME280;51941;52.210;5.158;2024-01-06T08:27:12;101042.75;;;2.88;82.02
65329;BME280;51941;52.210;5.158;2024-01-06T08:29:39;101053.84;;;2.90;82.08
65329;BME280;51941;52.210;5.158;2024-01-06T08:32:06;101048.81;;;2.80;81.11
65329;BME280;51941;52.210;5.158;2024-01-06T08:34:33;101062.31;;;2.92;81.11
65329;BME280;51941;52.210;5.158;2024-01-06T08:37:00;101047.91;;;3.02;80.60
65329;BME280;51941;52.210;5.158;2024-01-06T08:39:28;101069.66;;;3.04;80.29
65329;BME280;51941;52.210;5.158;2024-01-06T08:41:54;101060.88;;;2.94;80.31
65329;BME280;51941;52.210;5.158;2024-01-06T08:44:21;101061.69;;;3.04;80.23
65329;BME280;51941;52.210;5.158;2024-01-06T08:46:48;101059.03;;;3.04;80.36
65329;BME280;51941;52.210;5.158;2024-01-06T08:49:15;101072.31;;;2.86;80.50
65329;BME280;51941;52.210;5.158;2024-01-06T08:51:43;101071.22;;;2.96;79.26
65329;BME280;51941;52.210;5.158;2024-01-06T08:54:09;101074.19;;;2.94;79.29
65329;BME280;51941;52.210;5.158;2024-01-06T08:56:37;101076.84;;;2.86;79.89
65329;BME280;51941;52.210;5.158;2024-01-06T08:59:04;101083.13;;;3.07;79.02
65329;BME280;51941;52.210;5.158;2024-01-06T09:01:31;101087.19;;;3.05;78.05
65329;BME280;51941;52.210;5.158;2024-01-06T09:03:59;101079.19;;;3.05;78.33
65329;BME280;51941;52.210;5.158;2024-01-06T09:06:26;101110.50;;;2.99;78.61
65329;BME280;51941;52.210;5.158;2024-01-06T09:08:53;101103.63;;;2.98;78.34
65329;BME280;51941;52.210;5.158;2024-01-06T09:11:19;101098.75;;;3.09;78.06
65329;BME280;51941;52.210;5.158;2024-01-06T09:13:47;101095.63;;;2.98;78.31
65329;BME280;51941;52.210;5.158;2024-01-06T09:16:14;101100.00;;;2.85;78.24
65329;BME280;51941;52.210;5.158;2024-01-06T09:18:41;101106.59;;;3.05;77.92
65329;BME280;51941;52.210;5.158;2024-01-06T09:21:08;101119.09;;;2.87;77.78
65329;BME280;51941;52.210;5.158;2024-01-06T09:23:34;101119.13;;;3.13;77.45
65329;BME280;51941;52.210;5.158;2024-01-06T09:26:01;101134.47;;;3.16;76.88
65329;BME280;51941;52.210;5.158;2024-01-06T09:28:28;101122.41;;;3.10;77.49
65329;BME280;51941;52.210;5.158;2024-01-06T09:30:56;101131.50;;;3.09;77.09
65329;BME280;51941;52.210;5.158;2024-01-06T09:33:23;101140.09;;;3.06;77.02
65329;BME280;51941;52.210;5.158;2024-01-06T09:35:50;101140.41;;;3.05;76.85
65329;BME280;51941;52.210;5.158;2024-01-06T09:38:16;101140.56;;;3.08;76.75
65329;BME280;51941;52.210;5.158;2024-01-06T09:40:44;101142.28;;;3.04;77.33
65329;BME280;51941;52.210;5.158;2024-01-06T09:43:11;101132.91;;;3.15;76.57
65329;BME280;51941;52.210;5.158;2024-01-06T09:45:38;101153.88;;;3.08;76.47
65329;BME280;51941;52.210;5.158;2024-01-06T09:48:11;101147.91;;;3.03;76.66
65329;BME280;51941;52.210;5.158;2024-01-06T09:50:40;101164.78;;;2.89;77.44
65329;BME280;51941;52.210;5.158;2024-01-06T09:53:08;101162.16;;;3.07;76.50
65329;BME280;51941;52.210;5.158;2024-01-06T09:55:36;101175.56;;;2.84;76.81
65329;BME280;51941;52.210;5.158;2024-01-06T09:58:04;101170.13;;;2.98;76.85
65329;BME280;51941;52.210;5.158;2024-01-06T10:00:31;101173.63;;;3.07;76.61
65329;BME280;51941;52.210;5.158;2024-01-06T10:02:58;101176.41;;;3.02;76.55
65329;BME280;51941;52.210;5.158;2024-01-06T10:05:27;101183.78;;;3.14;75.95
65329;BME280;51941;52.210;5.158;2024-01-06T10:07:53;101183.00;;;3.13;76.12
65329;BME280;51941;52.210;5.158;2024-01-06T10:10:22;101184.59;;;3.23;75.52
65329;BME280;51941;52.210;5.158;2024-01-06T10:12:53;101186.63;;;3.18;75.94
65329;BME280;51941;52.210;5.158;2024-01-06T10:15:20;101188.94;;;3.10;76.07
65329;BME280;51941;52.210;5.158;2024-01-06T10:17:47;101189.56;;;3.07;76.25
65329;BME280;51941;52.210;5.158;2024-01-06T10:20:15;101194.13;;;3.24;76.34
65329;BME280;51941;52.210;5.158;2024-01-06T10:22:44;101207.75;;;3.23;75.62
65329;BME280;51941;52.210;5.158;2024-01-06T10:25:11;101202.75;;;3.21;75.86
65329;BME280;51941;52.210;5.158;2024-01-06T10:27:40;101190.84;;;3.19;75.53
65329;BME280;51941;52.210;5.158;2024-01-06T10:30:08;101204.44;;;3.17;75.52
65329;BME280;51941;52.210;5.158;2024-01-06T10:32:35;101202.13;;;3.24;75.06
65329;BME280;51941;52.210;5.158;2024-01-06T10:35:03;101208.84;;;3.22;75.51
65329;BME280;51941;52.210;5.158;2024-01-06T10:37:31;101204.78;;;3.24;75.33
65329;BME280;51941;52.210;5.158;2024-01-06T10:40:10;101215.56;;;3.10;75.80
65329;BME280;51941;52.210;5.158;2024-01-06T10:42:38;101217.91;;;3.21;75.27
65329;BME280;51941;52.210;5.158;2024-01-06T10:45:07;101221.38;;;3.21;75.53
65329;BME280;51941;52.210;5.158;2024-01-06T10:47:35;101220.59;;;3.21;76.03
65329;BME280;51941;52.210;5.158;2024-01-06T10:50:02;101217.91;;;3.21;75.83
65329;BME280;51941;52.210;5.158;2024-01-06T10:52:29;101231.28;;;3.29;75.28
65329;BME280;51941;52.210;5.158;2024-01-06T10:54:58;101237.84;;;3.23;74.88
65329;BME280;51941;52.210;5.158;2024-01-06T10:57:29;101236.28;;;3.31;74.82
65329;BME280;51941;52.210;5.158;2024-01-06T10:59:58;101234.69;;;3.21;74.57
65329;BME280;51941;52.210;5.158;2024-01-06T11:02:26;101233.13;;;3.29;74.84
65329;BME280;51941;52.210;5.158;2024-01-06T11:04:53;101229.22;;;3.18;74.62
65329;BME280;51941;52.210;5.158;2024-01-06T11:07:22;101236.91;;;3.28;74.58
65329;BME280;51941;52.210;5.158;2024-01-06T11:09:52;101234.25;;;3.36;74.02
65329;BME280;51941;52.210;5.158;2024-01-06T11:12:20;101245.97;;;3.27;74.60
65329;BME280;51941;52.210;5.158;2024-01-06T11:14:48;101246.59;;;3.24;74.37
65329;BME280;51941;52.210;5.158;2024-01-06T11:17:48;101238.63;;;3.24;74.99
65329;BME280;51941;52.210;5.158;2024-01-06T11:20:15;101248.31;;;3.28;74.66
65329;BME280;51941;52.210;5.158;2024-01-06T11:22:42;101253.81;;;3.23;74.61
65329;BME280;51941;52.210;5.158;2024-01-06T11:25:14;101248.63;;;3.18;75.17
65329;BME280;51941;52.210;5.158;2024-01-06T11:27:43;101257.06;;;3.20;74.40
65329;BME280;51941;52.210;5.158;2024-01-06T11:30:19;101252.22;;;3.22;74.66
65329;BME280;51941;52.210;5.158;2024-01-06T11:32:46;101247.97;;;3.12;75.15
65329;BME280;51941;52.210;5.158;2024-01-06T11:35:14;101249.88;;;3.21;75.51
65329;BME280;51941;52.210;5.158;2024-01-06T11:37:57;101262.41;;;3.20;75.77
65329;BME280;51941;52.210;5.158;2024-01-06T11:40:31;101256.94;;;3.34;75.06
65329;BME280;51941;52.210;5.158;2024-01-06T11:43:01;101254.16;;;3.39;74.85
65329;BME280;51941;52.210;5.158;2024-01-06T11:45:30;101253.22;;;3.35;74.66
65329;BME280;51941;52.210;5.158;2024-01-06T11:47:58;101260.44;;;3.43;74.43
65329;BME280;51941;52.210;5.158;2024-01-06T11:50:26;101250.56;;;3.44;74.56
65329;BME280;51941;52.210;5.158;2024-01-06T11:52:52;101253.81;;;3.41;74.26
65329;BME280;51941;52.210;5.158;2024-01-06T11:55:19;101261.69;;;3.46;74.29
65329;BME280;51941;52.210;5.158;2024-01-06T11:57:48;101251.50;;;3.39;73.79
65329;BME280;51941;52.210;5.158;2024-01-06T12:00:16;101255.28;;;3.47;73.95
65329;BME280;51941;52.210;5.158;2024-01-06T12:02:44;101255.09;;;3.43;74.11
65329;BME280;51941;52.210;5.158;2024-01-06T12:05:15;101252.22;;;3.22;73.95
65329;BME280;51941;52.210;5.158;2024-01-06T12:07:43;101249.25;;;3.32;74.00
65329;BME280;51941;52.210;5.158;2024-01-06T12:10:10;101248.31;;;3.20;74.46
65329;BME280;51941;52.210;5.158;2024-01-06T12:12:37;101253.50;;;3.33;73.60
65329;BME280;51941;52.210;5.158;2024-01-06T12:15:05;101246.31;;;3.34;74.23
65329;BME280;51941;52.210;5.158;2024-01-06T12:17:35;101248.66;;;3.35;74.29
65329;BME280;51941;52.210;5.158;2024-01-06T12:20:04;101251.03;;;3.46;74.21
65329;BME280;51941;52.210;5.158;2024-01-06T12:22:31;101261.63;;;3.20;75.12
65329;BME280;51941;52.210;5.158;2024-01-06T12:24:58;101268.31;;;3.17;75.34
65329;BME280;51941;52.210;5.158;2024-01-06T12:27:25;101267.13;;;3.32;74.57
65329;BME280;51941;52.210;5.158;2024-01-06T12:29:52;101266.34;;;3.31;74.96
65329;BME280;51941;52.210;5.158;2024-01-06T12:32:19;101267.91;;;3.32;74.82
65329;BME280;51941;52.210;5.158;2024-01-06T12:34:46;101268.06;;;3.36;74.90
65329;BME280;51941;52.210;5.158;2024-01-06T12:37:14;101271.50;;;3.19;76.50
65329;BME280;51941;52.210;5.158;2024-01-06T12:39:43;101277.69;;;3.06;76.01
65329;BME280;51941;52.210;5.158;2024-01-06T12:42:11;101267.94;;;2.92;76.23
65329;BME280;51941;52.210;5.158;2024-01-06T12:44:37;101273.16;;;3.06;75.79
65329;BME280;51941;52.210;5.158;2024-01-06T12:47:05;101288.34;;;3.06;75.57
65329;BME280;51941;52.210;5.158;2024-01-06T12:49:32;101280.47;;;3.01;76.12
65329;BME280;51941;52.210;5.158;2024-01-06T12:51:58;101279.44;;;3.10;75.95
65329;BME280;51941;52.210;5.158;2024-01-06T12:54:26;101278.53;;;3.24;75.72
65329;BME280;51941;52.210;5.158;2024-01-06T12:56:53;101287.00;;;3.26;75.62
65329;BME280;51941;52.210;5.158;2024-01-06T12:59:20;101291.53;;;3.25;75.96
65329;BME280;51941;52.210;5.158;2024-01-06T13:01:49;101293.09;;;3.18;75.85